Time;durP1;ratioP1;P1;durP2;ratioP2;P2;SDS_P1;SDS_P2;PMS_P1;PMS_P2;Temp;Humidity;BMP_temperature;BMP_pressure;BME280_temperature;BME280_humidity;BME280_pressure;Samples;Min_cycle;Max_cycle;Signal;HPM_P1;HPM_P2
2022/11/22 00:02:16;;;;;;;13.55;6.72;;;;;;;6.18;100.00;99064.69;4992498;28;20038;-83
2022/11/22 00:04:41;;;;;;;13.45;6.97;;;;;;;6.18;100.00;99064.69;4991016;28;20082;-83
2022/11/22 00:07:07;;;;;;;14.27;6.55;;;;;;;6.19;100.00;99056.72;4990442;28;20025;-84
2022/11/22 00:09:32;;;;;;;16.23;7.25;;;;;;;6.16;100.00;99056.97;4991289;28;20498;-83
2022/11/22 00:11:58;;;;;;;18.48;6.88;;;;;;;6.15;100.00;99049.28;4991433;28;20037;-83
2022/11/22 00:14:23;;;;;;;15.23;6.90;;;;;;;6.12;100.00;99054.75;4991187;28;20278;-80
2022/11/22 00:16:48;;;;;;;14.50;7.28;;;;;;;6.11;100.00;99056.53;4990104;28;20022;-83
2022/11/22 00:19:14;;;;;;;15.32;7.10;;;;;;;6.09;100.00;99058.44;4991156;28;20022;-84
2022/11/22 00:21:39;;;;;;;11.77;6.32;;;;;;;6.09;100.00;99055.84;4992585;28;20475;-84
2022/11/22 00:24:05;;;;;;;13.73;6.93;;;;;;;6.09;100.00;99061.06;4992909;28;20520;-84
2022/11/22 00:26:30;;;;;;;13.82;6.60;;;;;;;6.07;100.00;99052.53;4990193;28;20039;-84
2022/11/22 00:28:57;;;;;;;15.32;6.88;;;;;;;6.01;100.00;99053.06;4991930;28;20066;-80
2022/11/22 00:31:23;;;;;;;16.88;6.25;;;;;;;6.01;100.00;99057.44;4990175;28;20534;-83
2022/11/22 00:33:48;;;;;;;14.80;6.60;;;;;;;6.00;100.00;99056.59;4993651;28;20089;-84
2022/11/22 00:36:16;;;;;;;15.35;6.30;;;;;;;5.99;100.00;99060.16;4992543;28;20014;-83
2022/11/22 00:38:41;;;;;;;11.05;5.85;;;;;;;5.97;100.00;99062.91;4972871;28;20037;-83
2022/11/22 00:41:06;;;;;;;12.57;6.55;;;;;;;5.98;100.00;99055.91;4992266;28;20014;-83
2022/11/22 00:43:32;;;;;;;15.43;6.05;;;;;;;5.96;100.00;99060.41;4991850;28;20398;-83
2022/11/22 00:45:58;;;;;;;15.57;6.10;;;;;;;5.94;100.00;99057.09;4989834;28;20141;-82
2022/11/22 00:48:25;;;;;;;14.70;6.68;;;;;;;5.90;100.00;99060.94;4973543;28;20022;-83
2022/11/22 00:50:50;;;;;;;15.52;6.32;;;;;;;5.85;100.00;99050.84;4990109;28;20026;-82
2022/11/22 00:53:15;;;;;;;13.18;6.18;;;;;;;5.85;100.00;99052.63;4988077;28;20026;-82
2022/11/22 00:55:41;;;;;;;11.15;5.35;;;;;;;5.79;100.00;99058.38;4989549;28;20019;-80
2022/11/22 00:58:06;;;;;;;13.40;5.80;;;;;;;5.78;100.00;99057.53;4991567;28;20030;-82
2022/11/22 01:00:31;;;;;;;14.60;5.97;;;;;;;5.74;100.00;99055.31;4970185;28;20054;-83
2022/11/22 01:02:57;;;;;;;15.65;5.80;;;;;;;5.71;100.00;99058.19;4973790;28;20029;-83
2022/11/22 01:05:22;;;;;;;15.43;5.57;;;;;;;5.68;100.00;99050.59;4989186;28;20039;-83
2022/11/22 01:07:47;;;;;;;13.45;5.78;;;;;;;5.68;100.00;99053.22;4988723;28;20028;-83
2022/11/22 01:10:12;;;;;;;12.02;5.20;;;;;;;5.63;100.00;99059.63;4990629;28;20050;-83
2022/11/22 01:12:38;;;;;;;13.93;5.22;;;;;;;5.60;100.00;99057.28;4991933;28;20613;-80
2022/11/22 01:15:04;;;;;;;10.80;4.75;;;;;;;5.54;100.00;99057.75;4992851;28;20054;-83
2022/11/22 01:17:29;;;;;;;17.13;5.70;;;;;;;5.52;100.00;99067.50;4976232;28;20177;-80
2022/11/22 01:19:55;;;;;;;12.93;5.22;;;;;;;5.49;100.00;99072.97;4996831;28;20113;-81
2022/11/22 01:22:20;;;;;;;13.82;5.20;;;;;;;5.48;100.00;99073.09;4993089;28;20386;-85
2022/11/22 01:24:46;;;;;;;14.80;5.35;;;;;;;5.43;100.00;99073.47;4994266;28;20029;-83
2022/11/22 01:27:11;;;;;;;16.30;5.43;;;;;;;5.43;100.00;99076.06;4977543;28;20491;-84
2022/11/22 01:29:36;;;;;;;12.52;4.80;;;;;;;5.41;100.00;99072.75;4976625;28;20112;-84
2022/11/22 01:32:05;;;;;;;14.15;5.07;;;;;;;5.38;100.00;99065.19;4994802;28;20084;-83
2022/11/22 01:34:31;;;;;;;16.50;4.88;;;;;;;5.34;100.00;99062.00;4973896;28;20424;-82
2022/11/22 01:36:56;;;;;;;16.00;4.82;;;;;;;5.34;100.00;99064.63;4978941;28;20018;-83
2022/11/22 01:39:21;;;;;;;16.92;5.15;;;;;;;5.33;100.00;99070.78;4994403;28;20467;-80
2022/11/22 01:41:47;;;;;;;19.50;5.13;;;;;;;5.33;100.00;99077.78;4997085;28;20041;-81
2022/11/22 01:44:23;;;;;;;19.05;5.38;;;;;;;5.32;100.00;99083.94;4994357;28;20098;-82
2022/11/22 01:47:04;;;;;;;15.20;4.55;;;;;;;5.32;100.00;99094.38;4994931;28;20042;-83
2022/11/22 01:49:34;;;;;;;16.50;4.95;;;;;;;5.28;100.00;99091.19;4994875;28;20038;-83
2022/11/22 01:52:28;;;;;;;19.25;4.80;;;;;;;5.32;100.00;99091.78;4992370;28;20077;-82
2022/11/22 01:55:05;;;;;;;17.90;4.47;;;;;;;5.29;100.00;99094.63;4991600;28;20042;-83
2022/11/22 01:57:35;;;;;;;20.83;4.78;;;;;;;5.26;100.00;99094.88;4992927;28;20380;-81
2022/11/22 02:00:09;;;;;;;22.17;5.32;;;;;;;5.27;100.00;99096.53;4994548;28;20565;-83
2022/11/22 02:02:35;;;;;;;21.80;4.65;;;;;;;5.28;100.00;99091.19;4992416;28;20109;-82
2022/11/22 02:05:04;;;;;;;17.70;4.32;;;;;;;5.30;100.00;99094.50;4995380;28;20022;-83
2022/11/22 02:07:45;;;;;;;22.40;4.80;;;;;;;5.30;100.00;99099.72;4984467;28;20038;-83
2022/11/22 02:10:11;;;;;;;17.70;4.47;;;;;;;5.27;100.00;99099.97;4994163;28;20094;-83
2022/11/22 02:12:38;;;;;;;17.80;4.53;;;;;;;5.27;100.00;99099.13;4993058;28;20023;-81
2022/11/22 02:15:03;;;;;;;18.92;4.40;;;;;;;5.27;100.00;99104.34;4995035;28;20030;-83
2022/11/22 02:17:29;;;;;;;18.20;4.55;;;;;;;5.26;100.00;99107.91;4991590;28;20030;-82
2022/11/22 02:19:54;;;;;;;19.05;4.28;;;;;;;5.26;100.00;99107.91;4997888;28;20464;-83
2022/11/22 02:22:39;;;;;;;23.38;4.63;;;;;;;5.25;100.00;99107.06;4993964;28;20030;-83
2022/11/22 02:25:14;;;;;;;19.40;4.45;;;;;;;5.25;100.00;99107.06;4992652;28;20030;-80
2022/11/22 02:27:39;;;;;;;24.33;4.55;;;;;;;5.23;100.00;99111.59;4988553;28;20049;-83
2022/11/22 02:30:05;;;;;;;23.70;4.75;;;;;;;5.23;100.00;99108.16;4978520;28;20034;-83
2022/11/22 02:32:30;;;;;;;22.15;4.70;;;;;;;5.21;100.00;99113.50;4993573;28;20034;-83
2022/11/22 02:34:56;;;;;;;19.70;4.15;;;;;;;5.18;100.00;99111.09;4996086;28;20038;-83
2022/11/22 02:37:30;;;;;;;26.30;4.55;;;;;;;5.20;100.00;99118.78;5004186;28;20042;-80
2022/11/22 02:39:59;;;;;;;19.65;4.55;;;;;;;5.15;100.00;99115.72;5003500;28;20054;-85
2022/11/22 02:42:30;;;;;;;21.92;5.25;;;;;;;5.16;100.00;99112.16;5003647;28;20100;-82
2022/11/22 02:44:55;;;;;;;22.13;4.93;;;;;;;5.13;100.00;99112.41;5001915;28;20066;-80
2022/11/22 02:47:22;;;;;;;27.35;4.85;;;;;;;5.12;100.00;99114.19;4986189;28;20594;-83
2022/11/22 02:49:47;;;;;;;18.45;4.57;;;;;;;5.10;100.00;99107.44;5001523;28;20037;-83
2022/11/22 02:52:17;;;;;;;17.98;4.05;;;;;;;5.07;100.00;99118.94;4998618;28;20475;-83
2022/11/22 02:54:42;;;;;;;20.00;4.68;;;;;;;5.04;100.00;99120.03;4986727;28;20038;-82
2022/11/22 02:57:08;;;;;;;18.13;4.13;;;;;;;5.02;100.00;99129.75;5001002;28;20042;-83
2022/11/22 02:59:33;;;;;;;22.27;5.00;;;;;;;5.00;100.00;99125.59;4997595;28;20025;-81
2022/11/22 03:01:58;;;;;;;18.00;3.85;;;;;;;5.00;100.00;99123.81;5002834;28;20037;-82
2022/11/22 03:04:24;;;;;;;22.58;4.90;;;;;;;4.98;100.00;99124.88;4997501;28;20438;-83
2022/11/22 03:06:51;;;;;;;24.27;4.55;;;;;;;4.94;100.00;99116.50;4999606;28;20117;-83
2022/11/22 03:09:17;;;;;;;20.15;4.03;;;;;;;4.90;100.00;99115.06;4979298;28;20026;-83
2022/11/22 03:11:42;;;;;;;22.65;4.53;;;;;;;4.88;100.00;99126.56;4974583;28;20085;-83
2022/11/22 03:14:08;;;;;;;26.38;5.47;;;;;;;4.85;100.00;99125.03;4990570;28;20475;-83
2022/11/22 03:16:33;;;;;;;21.38;4.43;;;;;;;4.84;100.00;99138.19;4969067;28;20038;-83
2022/11/22 03:18:58;;;;;;;19.33;4.18;;;;;;;4.80;100.00;99147.97;4972319;28;20030;-83
2022/11/22 03:21:24;;;;;;;21.40;4.72;;;;;;;4.79;100.00;99150.72;4969568;28;20110;-84
2022/11/22 03:23:49;;;;;;;21.52;4.45;;;;;;;4.77;100.00;99150.00;4955979;28;20064;-84
2022/11/22 03:26:14;;;;;;;21.98;4.22;;;;;;;4.74;100.00;99148.47;4971646;28;20479;-81
2022/11/22 03:28:39;;;;;;;20.00;4.43;;;;;;;4.68;100.00;99147.16;4971681;28;20158;-84
2022/11/22 03:31:06;;;;;;;19.02;4.43;;;;;;;4.67;100.00;99149.88;4977915;28;20045;-85
2022/11/22 03:33:32;;;;;;;24.35;4.65;;;;;;;4.61;100.00;99153.78;4990859;28;20165;-84
2022/11/22 03:35:57;;;;;;;23.20;5.00;;;;;;;4.61;100.00;99147.75;4989506;28;20022;-85
2022/11/22 03:38:22;;;;;;;24.27;4.88;;;;;;;4.58;100.00;99142.78;4989517;28;20077;-85
2022/11/22 03:40:51;;;;;;;21.00;4.30;;;;;;;4.55;100.00;99143.03;4974245;28;20029;-83
2022/11/22 03:43:16;;;;;;;24.83;4.05;;;;;;;4.52;100.00;99148.47;4990626;28;20105;-82
2022/11/22 03:45:45;;;;;;;21.35;4.10;;;;;;;4.48;100.00;99152.25;4985920;28;20157;-83
2022/11/22 03:48:11;;;;;;;24.95;5.18;;;;;;;4.49;100.00;99153.91;4970438;28;20400;-83
2022/11/22 03:50:36;;;;;;;23.17;5.10;;;;;;;4.43;100.00;99154.38;4971071;28;20102;-83
2022/11/22 03:53:05;;;;;;;23.33;4.30;;;;;;;4.43;100.00;99150.00;4971879;28;20037;-80
2022/11/22 03:55:30;;;;;;;21.38;5.00;;;;;;;4.39;100.00;99153.75;4970715;28;20018;-83
2022/11/22 03:57:55;;;;;;;22.42;4.50;;;;;;;4.37;100.00;99158.25;4986771;28;20037;-83
2022/11/22 04:00:22;;;;;;;25.48;4.38;;;;;;;4.32;100.00;99150.78;4971147;28;20031;-82
2022/11/22 04:02:47;;;;;;;29.67;4.90;;;;;;;4.29;100.00;99158.84;4971625;28;20030;-83
2022/11/22 04:05:13;;;;;;;24.42;4.88;;;;;;;4.30;100.00;99157.88;4971659;28;20035;-83
2022/11/22 04:07:38;;;;;;;18.08;4.10;;;;;;;4.26;100.00;99156.47;4986383;28;20038;-83
2022/11/22 04:10:04;;;;;;;22.10;4.22;;;;;;;4.25;100.00;99152.19;4971253;28;20492;-82
2022/11/22 04:12:30;;;;;;;20.50;4.68;;;;;;;4.23;100.00;99153.25;4971973;28;20033;-81
2022/11/22 04:15:08;;;;;;;23.17;4.78;;;;;;;4.20;100.00;99162.13;4986927;28;20027;-81
2022/11/22 04:17:46;;;;;;;28.63;5.22;;;;;;;4.19;100.00;99180.47;4971278;28;20018;-80
2022/11/22 04:23:16;;;;;;;25.73;4.80;;;;;;;4.15;100.00;99192.06;4970850;28;20249;-83
2022/11/22 04:25:47;;;;;;;19.33;4.50;;;;;;;4.11;100.00;99196.66;4970941;28;20027;-82
2022/11/22 04:28:15;;;;;;;19.95;4.50;;;;;;;4.09;100.00;99193.34;4986534;28;20022;-81
2022/11/22 04:33:38;;;;;;;22.52;5.13;;;;;;;4.01;100.00;99180.91;4949733;28;20186;-81
2022/11/22 04:36:03;;;;;;;27.23;5.00;;;;;;;3.99;100.00;99179.31;4986687;28;20520;-81
2022/11/22 04:38:29;;;;;;;22.88;4.95;;;;;;;3.98;100.00;99180.25;4970831;28;20031;-81
2022/11/22 04:40:54;;;;;;;24.05;5.05;;;;;;;3.95;100.00;99185.69;4970541;28;20057;-83
2022/11/22 04:46:10;;;;;;;19.30;4.55;;;;;;;3.92;100.00;99185.91;4987216;28;20064;-83
2022/11/22 04:48:36;;;;;;;18.98;4.47;;;;;;;3.89;100.00;99180.94;4989900;28;20030;-84
2022/11/22 04:53:49;;;;;;;18.25;4.25;;;;;;;3.88;100.00;99182.72;4989712;28;20038;-83
2022/11/22 04:56:15;;;;;;;17.77;4.72;;;;;;;3.89;100.00;99191.34;4990200;28;20383;-83
2022/11/22 04:58:40;;;;;;;19.02;4.45;;;;;;;3.85;100.00;99190.75;4970957;28;20395;-83
2022/11/22 05:01:05;;;;;;;15.07;3.83;;;;;;;3.85;100.00;99200.31;4989772;28;20022;-82
2022/11/22 05:03:31;;;;;;;22.60;4.60;;;;;;;3.82;100.00;99190.16;4989587;28;20042;-82
2022/11/22 05:06:01;;;;;;;16.98;4.07;;;;;;;3.81;100.00;99199.72;4988326;28;20037;-81
2022/11/22 05:08:26;;;;;;;22.90;5.18;;;;;;;3.79;100.00;99196.41;4971993;28;20058;-81
2022/11/22 05:10:58;;;;;;;19.25;4.68;;;;;;;3.78;100.00;99199.94;4972851;28;20022;-83
2022/11/22 05:13:32;;;;;;;23.60;4.47;;;;;;;3.77;100.00;99199.13;4971064;28;20049;-83
2022/11/22 05:15:58;;;;;;;15.48;3.90;;;;;;;3.75;100.00;99197.56;4989154;28;20035;-83
2022/11/22 05:18:24;;;;;;;20.67;4.63;;;;;;;3.72;100.00;99197.78;4989668;28;20623;-84
2022/11/22 05:20:50;;;;;;;17.10;3.78;;;;;;;3.72;100.00;99190.00;4989758;28;20105;-83
2022/11/22 05:26:00;;;;;;;16.38;3.75;;;;;;;3.67;100.00;99203.31;4989873;28;20089;-82
2022/11/22 05:28:34;;;;;;;15.60;4.13;;;;;;;3.66;100.00;99196.47;4988920;28;20467;-82
2022/11/22 05:31:09;;;;;;;18.08;4.22;;;;;;;3.64;100.00;99198.34;4990030;28;20037;-83
2022/11/22 05:33:36;;;;;;;18.23;4.10;;;;;;;3.62;100.00;99194.19;4967067;28;20494;-83
2022/11/22 05:36:03;;;;;;;20.65;4.10;;;;;;;3.61;100.00;99188.16;4989162;28;20033;-83
2022/11/22 05:38:29;;;;;;;19.48;4.50;;;;;;;3.61;100.00;99189.94;4972088;28;20026;-83
2022/11/22 05:40:54;;;;;;;18.48;3.92;;;;;;;3.58;100.00;99188.34;4989613;28;20109;-83
2022/11/22 05:43:19;;;;;;;16.88;3.90;;;;;;;3.57;100.00;99191.91;4988570;28;20029;-82
2022/11/22 05:45:45;;;;;;;14.88;4.03;;;;;;;3.57;100.00;99196.28;4990188;28;20438;-83
2022/11/22 05:48:10;;;;;;;17.17;4.03;;;;;;;3.55;100.00;99187.75;4987425;28;20031;-83
2022/11/22 05:50:35;;;;;;;15.88;3.97;;;;;;;3.52;100.00;99198.38;4990552;28;20022;-83
2022/11/22 05:53:04;;;;;;;20.35;4.35;;;;;;;3.48;100.00;99189.97;4989688;28;20034;-82
2022/11/22 05:55:30;;;;;;;15.55;3.78;;;;;;;3.46;100.00;99176.25;4988042;28;20081;-83
2022/11/22 05:58:00;;;;;;;20.88;4.30;;;;;;;3.45;100.00;99188.41;4989658;28;20049;-83
2022/11/22 06:00:26;;;;;;;14.00;3.95;;;;;;;3.46;100.00;99174.47;4990894;28;20030;-83
2022/11/22 06:02:51;;;;;;;17.52;4.22;;;;;;;3.43;100.00;99172.09;4991318;28;20530;-83
2022/11/22 06:05:16;;;;;;;19.08;4.72;;;;;;;3.41;100.00;99178.34;4992375;28;20088;-83
2022/11/22 06:07:41;;;;;;;14.45;3.70;;;;;;;3.41;100.00;99181.78;4991506;28;20038;-82
2022/11/22 06:10:07;;;;;;;20.65;4.43;;;;;;;3.38;100.00;99186.38;4992149;28;20549;-83
2022/11/22 06:12:32;;;;;;;17.15;4.15;;;;;;;3.36;100.00;99190.84;4990719;28;20058;-82
2022/11/22 06:14:58;;;;;;;19.48;4.13;;;;;;;3.36;100.00;99183.88;4993521;28;20129;-83
2022/11/22 06:17:23;;;;;;;18.27;4.15;;;;;;;3.35;100.00;99191.78;4974831;28;20085;-82
2022/11/22 06:19:48;;;;;;;22.92;5.35;;;;;;;3.32;100.00;99186.81;4992240;28;20070;-83
2022/11/22 06:22:14;;;;;;;15.75;3.38;;;;;;;3.34;100.00;99190.97;4993326;28;20116;-83
2022/11/22 06:24:41;;;;;;;16.85;3.65;;;;;;;3.33;100.00;99191.06;4969900;28;20117;-82
2022/11/22 06:27:06;;;;;;;25.13;4.55;;;;;;;3.30;100.00;99193.88;4993179;28;20065;-84
2022/11/22 06:29:32;;;;;;;16.13;3.95;;;;;;;3.29;100.00;99197.41;4993306;28;20116;-83
2022/11/22 06:31:57;;;;;;;17.27;3.88;;;;;;;3.25;100.00;99202.00;4991878;28;20114;-83
2022/11/22 06:34:23;;;;;;;14.65;4.22;;;;;;;3.25;100.00;99206.38;4992931;28;20034;-84
2022/11/22 06:36:48;;;;;;;14.38;3.80;;;;;;;3.22;100.00;99204.00;4993563;28;20092;-82
2022/11/22 06:39:13;;;;;;;15.88;3.42;;;;;;;3.22;100.00;99211.78;4992383;28;20574;-83
2022/11/22 06:41:39;;;;;;;18.02;4.40;;;;;;;3.20;100.00;99219.66;4991954;28;20053;-83
2022/11/22 06:44:06;;;;;;;17.55;4.60;;;;;;;3.22;100.00;99219.59;4992568;28;20483;-82
2022/11/22 06:46:31;;;;;;;19.10;4.50;;;;;;;3.23;100.00;99213.44;4991202;28;20041;-82
2022/11/22 06:48:57;;;;;;;16.60;4.25;;;;;;;3.23;100.00;99223.84;4992071;28;20030;-83
2022/11/22 06:51:24;;;;;;;13.88;4.38;;;;;;;3.26;100.00;99219.25;4991452;28;20027;-83
2022/11/22 06:53:50;;;;;;;16.95;4.07;;;;;;;3.28;100.00;99216.56;4992985;28;20410;-83
2022/11/22 06:56:17;;;;;;;14.25;3.70;;;;;;;3.31;100.00;99221.53;4992447;28;20026;-84
2022/11/22 06:58:43;;;;;;;20.98;4.80;;;;;;;3.35;100.00;99225.56;4990506;28;20061;-83
2022/11/22 07:01:15;;;;;;;16.15;4.13;;;;;;;3.37;100.00;99231.50;4974314;28;20409;-82
2022/11/22 07:03:41;;;;;;;14.00;4.25;;;;;;;3.40;100.00;99232.09;4991882;28;20117;-83
2022/11/22 07:06:09;;;;;;;23.73;4.35;;;;;;;3.46;100.00;99230.84;4990965;28;20034;-82
2022/11/22 07:08:35;;;;;;;15.80;4.18;;;;;;;3.50;100.00;99247.06;4991459;28;20018;-82
2022/11/22 07:11:04;;;;;;;14.95;4.05;;;;;;;3.51;100.00;99246.94;4991125;28;20034;-82
2022/11/22 07:13:31;;;;;;;16.00;4.45;;;;;;;3.55;100.00;99250.16;4989639;28;20061;-83
2022/11/22 07:15:57;;;;;;;14.77;3.83;;;;;;;3.56;100.00;99247.44;4991976;28;20025;-83
2022/11/22 07:18:23;;;;;;;17.67;4.38;;;;;;;3.59;100.00;99236.81;4990053;28;20038;-83
2022/11/22 07:20:49;;;;;;;16.85;3.80;;;;;;;3.62;100.00;99236.63;4991508;28;20049;-83
2022/11/22 07:23:14;;;;;;;19.83;4.32;;;;;;;3.65;100.00;99233.81;4973914;28;20030;-82
2022/11/22 07:25:47;;;;;;;13.43;4.20;;;;;;;3.68;100.00;99236.19;4991263;28;20033;-83
2022/11/22 07:28:13;;;;;;;13.02;3.47;;;;;;;3.73;100.00;99234.09;4990668;28;20045;-83
2022/11/22 07:30:40;;;;;;;17.23;3.88;;;;;;;3.75;100.00;99240.00;4991271;28;20080;-82
2022/11/22 07:33:06;;;;;;;14.10;4.30;;;;;;;3.80;100.00;99238.84;4972991;28;20049;-83
2022/11/22 07:35:31;;;;;;;17.80;3.92;;;;;;;3.84;100.00;99235.09;4989902;28;20363;-81
2022/11/22 07:37:57;;;;;;;15.13;3.53;;;;;;;3.88;100.00;99241.72;4973762;28;20019;-81
2022/11/22 07:40:22;;;;;;;16.98;4.28;;;;;;;3.90;100.00;99239.84;4989730;28;20479;-82
2022/11/22 07:42:47;;;;;;;17.05;3.60;;;;;;;3.95;100.00;99242.94;4989493;28;20033;-83
2022/11/22 07:45:13;;;;;;;16.58;3.83;;;;;;;3.99;100.00;99249.56;4990284;28;20169;-83
2022/11/22 07:47:38;;;;;;;16.33;3.65;;;;;;;4.01;100.00;99239.91;4988647;28;20030;-82
2022/11/22 07:50:04;;;;;;;14.43;3.83;;;;;;;4.06;100.00;99240.41;4989221;28;20034;-82
2022/11/22 07:52:29;;;;;;;14.75;3.58;;;;;;;4.06;100.00;99241.25;4990241;28;20114;-82
2022/11/22 07:54:55;;;;;;;16.95;3.25;;;;;;;4.12;100.00;99239.13;4989244;28;20467;-82
2022/11/22 07:57:20;;;;;;;14.90;3.58;;;;;;;4.13;100.00;99244.22;4990079;28;20065;-83
2022/11/22 07:59:45;;;;;;;14.27;3.55;;;;;;;4.17;100.00;99248.25;4991853;28;20030;-81
2022/11/22 08:02:11;;;;;;;13.30;3.83;;;;;;;4.19;100.00;99245.53;4990564;28;20033;-82
2022/11/22 08:04:36;;;;;;;12.65;3.35;;;;;;;4.23;100.00;99247.78;4974485;28;20073;-81
2022/11/22 08:07:02;;;;;;;13.98;3.63;;;;;;;4.26;100.00;99257.16;4990546;28;20222;-82
2022/11/22 08:09:28;;;;;;;15.88;3.80;;;;;;;4.31;100.00;99255.03;4986848;28;20113;-81
2022/11/22 08:11:53;;;;;;;15.88;3.53;;;;;;;4.32;100.00;99254.94;4973708;28;20084;-83
2022/11/22 08:14:19;;;;;;;12.90;3.10;;;;;;;4.35;100.00;99257.31;4991737;28;20061;-83
2022/11/22 08:16:44;;;;;;;10.27;3.03;;;;;;;4.37;100.00;99250.19;4993113;28;20018;-83
2022/11/22 08:19:14;;;;;;;15.65;3.28;;;;;;;4.38;100.00;99246.66;4993155;28;20030;-83
2022/11/22 08:21:40;;;;;;;15.27;3.88;;;;;;;4.43;100.00;99253.31;4991755;28;20034;-83
2022/11/22 08:24:05;;;;;;;13.77;3.50;;;;;;;4.43;100.00;99253.31;4989383;28;20054;-83
2022/11/22 08:26:32;;;;;;;11.48;3.15;;;;;;;4.46;100.00;99258.31;4990678;28;20029;-81
2022/11/22 08:28:58;;;;;;;13.43;3.22;;;;;;;4.47;100.00;99258.19;4991315;28;20041;-83
2022/11/22 08:31:24;;;;;;;11.50;3.20;;;;;;;4.48;100.00;99262.44;4989892;28;20026;-84
2022/11/22 08:33:52;;;;;;;7.07;2.47;;;;;;;4.52;100.00;99265.66;4991414;28;20039;-81
2022/11/22 08:36:17;;;;;;;14.45;3.33;;;;;;;4.56;100.00;99264.47;4973981;28;20383;-81
2022/11/22 08:38:42;;;;;;;10.35;3.35;;;;;;;4.59;100.00;99270.28;4989037;28;20026;-82
2022/11/22 08:41:08;;;;;;;13.38;3.22;;;;;;;4.60;100.00;99265.91;4989844;28;20037;-82
2022/11/22 08:43:34;;;;;;;15.07;3.65;;;;;;;4.65;100.00;99263.78;4988723;28;20488;-83
2022/11/22 08:46:00;;;;;;;16.70;3.53;;;;;;;4.67;100.00;99272.31;4989144;28;20124;-83
2022/11/22 08:48:28;;;;;;;13.70;3.42;;;;;;;4.72;100.00;99264.97;4989021;28;20026;-81
2022/11/22 08:50:56;;;;;;;10.52;2.70;;;;;;;4.77;100.00;99262.84;4989844;28;20435;-83
2022/11/22 08:53:22;;;;;;;13.52;2.90;;;;;;;4.83;100.00;99262.41;4972199;28;20383;-82
2022/11/22 08:55:48;;;;;;;15.93;3.15;;;;;;;4.90;100.00;99273.19;4990572;28;20030;-82
2022/11/22 08:58:14;;;;;;;13.50;3.28;;;;;;;4.93;100.00;99272.97;4989542;28;20113;-83
2022/11/22 09:00:39;;;;;;;12.20;3.20;;;;;;;4.93;100.00;99273.78;4992062;28;20111;-82
2022/11/22 09:03:05;;;;;;;14.45;3.30;;;;;;;4.95;100.00;99271.91;4972251;28;20471;-82
2022/11/22 09:05:30;;;;;;;12.18;3.30;;;;;;;4.98;100.00;99273.44;4989697;28;20455;-81
2022/11/22 09:07:56;;;;;;;11.10;3.00;;;;;;;4.99;100.00;99278.53;4989304;28;20058;-84
2022/11/22 09:10:22;;;;;;;11.63;2.90;;;;;;;5.01;100.00;99270.59;4991419;28;20553;-82
2022/11/22 09:12:47;;;;;;;10.98;2.85;;;;;;;5.02;100.00;99280.91;4991695;28;20022;-80
2022/11/22 09:15:14;;;;;;;11.35;3.03;;;;;;;5.04;100.00;99275.56;4989084;28;20343;-82
2022/11/22 09:17:40;;;;;;;10.52;3.00;;;;;;;5.09;100.00;99278.66;4993155;28;20045;-82
2022/11/22 09:20:06;;;;;;;10.48;3.15;;;;;;;5.12;100.00;99277.59;4989614;28;20054;-83
2022/11/22 09:22:31;;;;;;;11.25;3.10;;;;;;;5.15;100.00;99282.56;4992292;28;20030;-83
2022/11/22 09:24:57;;;;;;;8.48;2.78;;;;;;;5.19;100.00;99279.59;4993894;28;20040;-81
2022/11/22 09:27:22;;;;;;;12.55;3.42;;;;;;;5.23;100.00;99269.81;4990225;28;20064;-83
2022/11/22 09:29:48;;;;;;;9.00;2.75;;;;;;;5.27;100.00;99281.66;4991651;28;20432;-83
2022/11/22 09:32:13;;;;;;;11.90;3.10;;;;;;;5.33;100.00;99281.16;4972352;28;20034;-83
2022/11/22 09:34:38;;;;;;;12.82;2.78;;;;;;;5.37;100.00;99290.41;4975692;28;20080;-82
2022/11/22 09:37:04;;;;;;;10.18;2.78;;;;;;;5.42;100.00;99288.28;4991346;28;20026;-82
2022/11/22 09:39:29;;;;;;;10.45;2.83;;;;;;;5.45;100.00;99280.22;4992622;28;20356;-82
2022/11/22 09:42:16;;;;;;;9.40;3.33;;;;;;;5.54;100.00;99274.28;4995589;28;20026;-83
2022/11/22 09:45:00;;;;;;;8.40;2.72;;;;;;;5.56;100.00;99281.97;4995570;28;20069;-82
2022/11/22 09:47:28;;;;;;;12.05;2.90;;;;;;;5.58;100.00;99286.13;4992969;28;20026;-82
2022/11/22 09:50:13;;;;;;;7.65;2.55;;;;;;;5.62;100.00;99286.75;4994828;28;20050;-82
2022/11/22 09:53:08;;;;;;;5.00;2.22;;;;;;;5.66;100.00;99280.31;4993616;28;20360;-83
2022/11/22 09:55:50;;;;;;;7.60;2.30;;;;;;;5.66;100.00;99282.94;4994704;28;20035;-83
2022/11/22 09:58:24;;;;;;;11.23;2.47;;;;;;;5.70;100.00;99267.88;4996863;28;20061;-82
2022/11/22 10:00:49;;;;;;;8.50;2.10;;;;;;;5.72;100.00;99284.22;4996453;28;20030;-82
2022/11/22 10:03:44;;;;;;;8.32;2.05;;;;;;;5.74;100.00;99290.16;4995165;28;20035;-81
2022/11/22 10:06:33;;;;;;;5.35;2.10;;;;;;;5.72;100.00;99292.06;4993538;28;20042;-83
2022/11/22 10:09:35;;;;;;;6.10;2.05;;;;;;;5.73;100.00;99288.50;4994948;28;20018;-83
2022/11/22 10:12:02;;;;;;;7.93;2.10;;;;;;;5.72;100.00;99286.84;4993139;28;20045;-82
2022/11/22 10:14:48;;;;;;;6.78;1.95;;;;;;;5.75;100.00;99292.63;4993428;28;20076;-83
2022/11/22 10:17:27;;;;;;;7.55;1.90;;;;;;;5.78;100.00;99281.13;4995014;28;20379;-83
2022/11/22 10:20:01;;;;;;;8.93;2.20;;;;;;;5.77;100.00;99284.69;4995193;28;20995;-83
2022/11/22 10:22:29;;;;;;;5.80;2.00;;;;;;;5.80;100.00;99285.28;4994351;28;20563;-84
2022/11/22 10:24:57;;;;;;;6.35;1.98;;;;;;;5.78;100.00;99281.13;4995654;28;20029;-84
2022/11/22 10:27:22;;;;;;;9.68;2.10;;;;;;;5.78;100.00;99278.53;4992076;28;20034;-82
2022/11/22 10:30:00;;;;;;;9.52;2.45;;;;;;;5.79;100.00;99269.75;4977721;28;20054;-84
2022/11/22 10:32:30;;;;;;;8.32;2.33;;;;;;;5.75;100.00;99273.53;4993766;28;20444;-84
2022/11/22 10:35:07;;;;;;;7.53;2.20;;;;;;;5.81;100.00;99265.22;4995300;28;20030;-83
2022/11/22 10:37:47;;;;;;;4.40;1.77;;;;;;;5.83;100.00;99268.53;4993020;28;20043;-83
2022/11/22 10:40:17;;;;;;;9.18;2.15;;;;;;;5.88;100.00;99263.78;4992221;28;20072;-82
2022/11/22 10:42:59;;;;;;;7.32;2.17;;;;;;;5.92;100.00;99270.44;4992834;28;20045;-83
2022/11/22 10:45:33;;;;;;;4.20;1.92;;;;;;;5.90;100.00;99264.50;4989447;28;20059;-82
2022/11/22 10:48:04;;;;;;;8.27;2.00;;;;;;;5.91;100.00;99266.16;4987376;28;20365;-83
2022/11/22 10:50:42;;;;;;;8.38;1.90;;;;;;;5.96;100.00;99261.41;4986472;28;20054;-82
2022/11/22 10:53:26;;;;;;;5.68;1.80;;;;;;;6.00;100.00;99257.59;4972510;28;20030;-83
2022/11/22 10:56:14;;;;;;;4.90;1.80;;;;;;;6.06;100.00;99253.69;4972608;28;20023;-82
2022/11/22 10:59:14;;;;;;;4.57;1.65;;;;;;;6.14;100.00;99257.34;4966911;28;20035;-82
2022/11/22 11:01:58;;;;;;;7.25;1.75;;;;;;;6.19;100.00;99256.94;4955861;28;20086;-83
2022/11/22 11:04:29;;;;;;;9.63;1.92;;;;;;;6.23;100.00;99255.75;4969674;28;20065;-84
2022/11/22 11:06:57;;;;;;;6.53;1.75;;;;;;;6.23;100.00;99253.97;4970676;28;20027;-82
2022/11/22 11:09:43;;;;;;;6.03;1.70;;;;;;;6.25;100.00;99254.66;4971842;28;20049;-83
2022/11/22 11:12:17;;;;;;;5.68;1.95;;;;;;;6.25;100.00;99240.78;4971496;28;20674;-81
2022/11/22 11:14:47;;;;;;;5.03;1.60;;;;;;;6.27;100.00;99237.09;4973215;28;20114;-81
2022/11/22 11:17:17;;;;;;;3.88;1.65;;;;;;;6.26;99.90;99232.81;4972491;28;20030;-81
2022/11/22 11:19:46;;;;;;;5.65;1.85;;;;;;;6.29;99.51;99239.56;4972451;28;20518;-81
2022/11/22 11:22:22;;;;;;;3.25;1.50;;;;;;;6.31;99.60;99232.44;4971657;28;20050;-83
2022/11/22 11:24:47;;;;;;;4.03;1.60;;;;;;;6.33;100.00;99220.09;4973280;28;20030;-83
2022/11/22 11:27:16;;;;;;;3.05;1.60;;;;;;;6.37;99.81;99218.03;4987133;28;20022;-81
2022/11/22 11:29:44;;;;;;;2.50;1.25;;;;;;;6.42;99.67;99223.75;4973248;28;20035;-84
2022/11/22 11:32:14;;;;;;;3.78;1.52;;;;;;;6.45;98.95;99221.69;4972837;28;20451;-83
2022/11/22 11:34:51;;;;;;;3.80;1.40;;;;;;;6.50;98.59;99218.69;4985815;28;20030;-82
2022/11/22 11:37:42;;;;;;;3.25;1.15;;;;;;;6.54;99.21;99220.09;4972265;28;20111;-83
2022/11/22 11:40:29;;;;;;;2.85;1.30;;;;;;;6.52;98.26;99214.19;4985688;28;20510;-84
2022/11/22 11:43:20;;;;;;;4.75;1.40;;;;;;;6.56;97.84;99223.41;4972858;28;20026;-83
2022/11/22 11:45:46;;;;;;;2.97;1.40;;;;;;;6.52;97.50;99214.19;4986376;28;20046;-83
2022/11/22 11:48:27;;;;;;;5.07;1.65;;;;;;;6.54;98.01;99215.69;4991744;28;20110;-81